createdAt,value
2024-01-21T00:02:23.221Z,4.40
2024-01-21T00:04:51.220Z,4.20
2024-01-21T00:07:19.131Z,4.50
2024-01-21T00:09:47.215Z,6.30
2024-01-21T00:12:15.146Z,5.00
2024-01-21T00:14:43.127Z,5.10
2024-01-21T00:17:11.893Z,4.80
2024-01-21T00:19:41.250Z,4.70
2024-01-21T00:22:09.267Z,4.80
2024-01-21T00:24:37.330Z,4.10
2024-01-21T00:27:05.573Z,4.10
2024-01-21T00:29:33.612Z,5.00
2024-01-21T00:32:01.571Z,5.00
2024-01-21T00:34:30.344Z,4.80
2024-01-21T00:36:58.690Z,4.00
2024-01-21T00:39:26.727Z,4.30
2024-01-21T00:42:02.074Z,4.30
2024-01-21T00:44:37.665Z,4.80
2024-01-21T00:47:05.691Z,4.70
2024-01-21T00:49:34.641Z,5.30
2024-01-21T00:52:03.478Z,4.30
2024-01-21T00:54:31.481Z,4.50
2024-01-21T00:56:59.788Z,4.10
2024-01-21T00:59:27.679Z,4.80
2024-01-21T01:01:55.490Z,4.80
2024-01-21T01:04:23.466Z,5.00
2024-01-21T01:06:51.539Z,5.60
2024-01-21T01:09:19.579Z,5.00
2024-01-21T01:11:47.537Z,5.00
2024-01-21T01:14:15.690Z,5.00
2024-01-21T01:16:43.634Z,4.40
2024-01-21T01:19:12.442Z,4.70
2024-01-21T01:21:40.717Z,4.70
2024-01-21T01:24:08.959Z,5.10
2024-01-21T01:26:36.940Z,4.90
2024-01-21T01:29:04.782Z,5.10
2024-01-21T01:31:32.662Z,4.00
2024-01-21T01:34:00.638Z,5.20
2024-01-21T01:36:29.421Z,5.10
2024-01-21T01:38:57.518Z,5.40
2024-01-21T01:41:25.388Z,4.80
2024-01-21T01:43:55.623Z,4.90
2024-01-21T01:46:23.717Z,4.80
2024-01-21T01:48:51.922Z,4.80
2024-01-21T01:51:19.920Z,4.60
2024-01-21T01:53:48.224Z,4.30
2024-01-21T01:56:16.280Z,4.60
2024-01-21T01:58:44.574Z,4.10
2024-01-21T02:01:12.530Z,4.50
2024-01-21T02:03:40.605Z,3.90
2024-01-21T02:06:08.745Z,4.20
2024-01-21T02:08:36.688Z,4.20
2024-01-21T02:11:04.630Z,4.50
2024-01-21T02:13:32.646Z,4.20
2024-01-21T02:16:01.507Z,3.70
2024-01-21T02:18:29.970Z,5.00
2024-01-21T02:20:57.898Z,3.50
2024-01-21T02:23:25.746Z,4.60
2024-01-21T02:25:53.659Z,4.00
2024-01-21T02:28:21.575Z,3.90
2024-01-21T02:30:49.623Z,4.40
2024-01-21T02:33:17.571Z,5.10
2024-01-21T02:35:45.604Z,3.90
2024-01-21T02:38:13.947Z,4.00
2024-01-21T02:40:41.797Z,4.60
2024-01-21T02:43:10.772Z,4.20
2024-01-21T02:45:38.757Z,3.80
2024-01-21T02:48:06.910Z,5.00
2024-01-21T02:50:34.758Z,4.70
2024-01-21T02:53:02.658Z,4.30
2024-01-21T02:55:30.562Z,4.20
2024-01-21T02:57:58.443Z,4.80
2024-01-21T03:00:26.642Z,4.20
2024-01-21T03:02:54.725Z,3.80
2024-01-21T03:05:23.975Z,4.50
2024-01-21T03:07:52.103Z,4.00
2024-01-21T03:10:19.889Z,3.60
2024-01-21T03:12:47.948Z,3.90
2024-01-21T03:15:16.118Z,3.90
2024-01-21T03:17:44.196Z,3.50
2024-01-21T03:20:12.554Z,3.80
2024-01-21T03:22:40.398Z,4.30
2024-01-21T03:25:08.357Z,5.50
2024-01-21T03:27:36.324Z,4.10
2024-01-21T03:30:04.510Z,4.30
2024-01-21T03:32:32.525Z,4.20
2024-01-21T03:35:00.356Z,3.70
2024-01-21T03:37:28.330Z,3.70
2024-01-21T03:39:56.265Z,3.50
2024-01-21T03:42:24.178Z,3.70
2024-01-21T03:44:52.060Z,4.20
2024-01-21T03:47:19.980Z,4.20
2024-01-21T03:49:47.977Z,4.20
2024-01-21T03:52:15.882Z,4.30
2024-01-21T03:54:43.879Z,4.20
2024-01-21T03:57:11.877Z,3.80
2024-01-21T03:59:43.373Z,3.60
2024-01-21T04:02:11.232Z,4.30
2024-01-21T04:04:39.098Z,5.00
2024-01-21T04:07:07.085Z,5.10
2024-01-21T04:09:34.944Z,4.90
2024-01-21T04:12:02.895Z,5.10
2024-01-21T04:14:30.743Z,5.50
2024-01-21T04:16:58.662Z,4.70
2024-01-21T04:19:26.866Z,4.20
2024-01-21T04:21:54.941Z,4.40
2024-01-21T04:24:22.905Z,6.20
2024-01-21T04:26:51.858Z,4.90
2024-01-21T04:29:19.750Z,5.80
2024-01-21T04:31:47.618Z,5.20
2024-01-21T04:34:15.706Z,5.40
2024-01-21T04:36:44.594Z,4.90
2024-01-21T04:39:12.448Z,4.60
2024-01-21T04:41:40.389Z,5.00
2024-01-21T04:44:08.248Z,4.70
2024-01-21T04:46:36.039Z,5.10
2024-01-21T04:49:04.037Z,5.10
2024-01-21T04:51:32.429Z,5.60
2024-01-21T04:54:00.273Z,6.10
2024-01-21T04:56:28.179Z,5.50
2024-01-21T04:58:57.978Z,5.60
2024-01-21T05:01:26.140Z,5.10
2024-01-21T05:03:54.176Z,5.40
2024-01-21T05:06:22.321Z,5.30
2024-01-21T05:08:50.370Z,5.70
2024-01-21T05:11:18.194Z,5.20
2024-01-21T05:13:51.512Z,7.10
2024-01-21T05:16:21.875Z,6.40
2024-01-21T05:18:49.780Z,6.10
2024-01-21T05:21:22.209Z,5.90
2024-01-21T05:23:53.966Z,5.10
2024-01-21T05:26:21.902Z,6.20
2024-01-21T05:28:49.983Z,5.80
2024-01-21T05:31:17.843Z,6.70
2024-01-21T05:33:48.477Z,5.90
2024-01-21T05:36:16.753Z,6.50
2024-01-21T05:38:44.990Z,6.10
2024-01-21T05:41:16.327Z,6.20
2024-01-21T05:43:47.152Z,5.80
2024-01-21T05:46:15.009Z,6.30
2024-01-21T05:48:43.376Z,6.60
2024-01-21T05:51:11.620Z,6.40
2024-01-21T05:53:43.665Z,6.90
2024-01-21T05:56:12.024Z,5.80
2024-01-21T05:58:39.940Z,6.70
2024-01-21T06:01:07.946Z,7.50
2024-01-21T06:03:36.007Z,6.60
2024-01-21T06:06:04.662Z,7.30
2024-01-21T06:08:32.529Z,6.90
2024-01-21T06:11:00.631Z,6.70
2024-01-21T06:13:28.503Z,7.00
2024-01-21T06:15:56.532Z,8.50
2024-01-21T06:18:24.588Z,7.80
2024-01-21T06:20:55.541Z,7.40
2024-01-21T06:23:23.752Z,7.50
2024-01-21T06:25:51.784Z,7.30
2024-01-21T06:28:19.689Z,7.80
2024-01-21T06:30:47.596Z,7.80
2024-01-21T06:33:15.788Z,8.10
2024-01-21T06:35:43.750Z,8.70
2024-01-21T06:38:12.071Z,7.10
2024-01-21T06:40:40.043Z,7.20
2024-01-21T06:43:07.996Z,8.10
2024-01-21T06:45:36.507Z,8.60
2024-01-21T06:48:05.103Z,8.30
2024-01-21T06:50:34.636Z,8.90
2024-01-21T06:53:02.524Z,9.10
2024-01-21T06:55:30.393Z,8.90
2024-01-21T06:57:58.283Z,9.60
2024-01-21T07:00:26.264Z,11.00
2024-01-21T07:02:54.127Z,9.70
2024-01-21T07:05:23.195Z,9.70
2024-01-21T07:07:51.137Z,6.90
2024-01-21T07:10:19.073Z,6.80
2024-01-21T07:12:47.763Z,8.30
2024-01-21T07:15:15.965Z,8.50
2024-01-21T07:17:46.823Z,7.90
2024-01-21T07:20:16.083Z,9.10
2024-01-21T07:22:43.993Z,8.90
2024-01-21T07:25:15.830Z,11.00
2024-01-21T07:27:44.297Z,13.00
2024-01-21T07:30:13.309Z,10.80
2024-01-21T07:32:42.416Z,9.50
2024-01-21T07:35:10.651Z,10.00
2024-01-21T07:37:38.900Z,8.40
2024-01-21T07:40:08.072Z,8.80
2024-01-21T07:42:36.009Z,7.60
2024-01-21T07:45:04.338Z,7.70
2024-01-21T07:47:32.277Z,7.20
2024-01-21T07:50:00.226Z,7.70
2024-01-21T07:52:28.107Z,8.30
2024-01-21T07:54:55.998Z,7.50
2024-01-21T07:57:24.386Z,8.00
2024-01-21T07:59:52.356Z,8.10
2024-01-21T08:02:28.296Z,8.20
2024-01-21T08:04:56.190Z,8.80
2024-01-21T08:07:24.469Z,7.70
2024-01-21T08:09:52.446Z,7.20
2024-01-21T08:12:20.758Z,8.00
2024-01-21T08:14:48.777Z,8.20
2024-01-21T08:17:16.828Z,9.30
2024-01-21T08:19:44.818Z,10.40
2024-01-21T08:22:13.048Z,13.10
2024-01-21T08:24:40.990Z,16.30
2024-01-21T08:27:08.790Z,11.20
2024-01-21T08:29:40.667Z,11.00
2024-01-21T08:32:08.961Z,8.80
2024-01-21T08:34:37.577Z,8.10
2024-01-21T08:37:06.319Z,8.70
2024-01-21T08:39:34.560Z,9.00
2024-01-21T08:42:02.516Z,8.40
2024-01-21T08:44:30.625Z,8.30
2024-01-21T08:47:00.424Z,8.30
2024-01-21T08:49:28.794Z,8.30
2024-01-21T08:51:56.882Z,8.00
2024-01-21T08:54:24.966Z,9.80
2024-01-21T08:56:52.878Z,7.40
2024-01-21T08:59:21.117Z,7.50
2024-01-21T09:01:50.127Z,7.50
2024-01-21T09:04:18.213Z,8.00
2024-01-21T09:06:46.327Z,7.40
2024-01-21T09:09:14.366Z,7.40
2024-01-21T09:11:42.338Z,7.30
2024-01-21T09:14:10.551Z,8.20
2024-01-21T09:16:38.582Z,6.90
2024-01-21T09:19:06.958Z,7.40
2024-01-21T09:21:36.125Z,7.40
2024-01-21T09:24:06.332Z,8.10
2024-01-21T09:26:35.410Z,7.90
2024-01-21T09:29:03.715Z,7.50
2024-01-21T09:31:31.841Z,7.50
2024-01-21T09:34:00.056Z,7.90
2024-01-21T09:36:28.389Z,7.10
2024-01-21T09:38:56.324Z,6.80
2024-01-21T09:41:32.133Z,5.90
2024-01-21T09:44:00.390Z,6.70
2024-01-21T09:46:29.501Z,7.00
2024-01-21T09:49:00.983Z,6.30
2024-01-21T09:51:31.510Z,5.90
2024-01-21T09:54:02.170Z,6.40
2024-01-21T09:56:30.265Z,7.50
2024-01-21T09:58:58.677Z,7.40
2024-01-21T10:01:27.074Z,7.60
2024-01-21T10:03:56.857Z,7.60
2024-01-21T10:06:25.628Z,7.60
2024-01-21T10:08:53.690Z,6.70
2024-01-21T10:11:21.788Z,7.00
2024-01-21T10:13:49.830Z,7.50
2024-01-21T10:16:18.096Z,6.70
2024-01-21T10:18:49.342Z,7.60
2024-01-21T10:21:19.985Z,8.00
2024-01-21T10:23:48.626Z,6.50
2024-01-21T10:26:17.051Z,6.70
2024-01-21T10:28:45.058Z,6.10
2024-01-21T10:31:13.009Z,6.90
2024-01-21T10:33:45.873Z,6.90
2024-01-21T10:36:15.711Z,6.70
2024-01-21T10:38:50.503Z,6.30
2024-01-21T10:41:34.761Z,6.40
2024-01-21T10:44:03.910Z,8.10
2024-01-21T10:46:33.348Z,6.00
2024-01-21T10:49:01.558Z,5.40
2024-01-21T10:51:30.722Z,9.10
2024-01-21T10:54:01.885Z,7.00
2024-01-21T10:56:29.798Z,6.00
2024-01-21T10:58:57.884Z,5.70
2024-01-21T11:01:26.690Z,5.80
2024-01-21T11:04:15.329Z,6.40
2024-01-21T11:06:49.686Z,5.30
2024-01-21T11:09:23.454Z,6.10
2024-01-21T11:11:55.993Z,4.90
2024-01-21T11:17:11.553Z,5.60
2024-01-21T11:19:48.982Z,4.50
2024-01-21T11:22:19.345Z,4.70
2024-01-21T11:24:47.680Z,5.10
2024-01-21T11:27:23.414Z,6.50
2024-01-21T11:29:54.890Z,5.20
2024-01-21T11:32:28.380Z,5.50
2024-01-21T11:35:06.251Z,5.00
2024-01-21T11:37:34.621Z,5.30
2024-01-21T11:40:04.050Z,5.70
2024-01-21T11:42:36.378Z,5.20
2024-01-21T11:45:05.623Z,5.50
2024-01-21T11:47:33.902Z,5.00
2024-01-21T11:50:02.534Z,5.80
2024-01-21T11:52:31.055Z,6.20
2024-01-21T11:54:59.476Z,5.00
2024-01-21T11:57:29.076Z,5.70
2024-01-21T11:59:57.426Z,6.20
2024-01-21T12:02:25.863Z,5.30
2024-01-21T12:04:57.459Z,5.70
2024-01-21T12:07:27.124Z,5.70
2024-01-21T12:09:55.391Z,6.60
2024-01-21T12:12:23.480Z,5.90
2024-01-21T12:14:53.956Z,5.70
2024-01-21T12:17:23.510Z,5.40
2024-01-21T12:19:51.652Z,5.70
2024-01-21T12:22:37.116Z,6.30
2024-01-21T12:27:33.416Z,5.70
2024-01-21T12:30:01.391Z,5.50
2024-01-21T12:32:29.622Z,6.00
2024-01-21T12:34:57.874Z,5.30
2024-01-21T12:37:26.300Z,6.40
2024-01-21T12:39:54.301Z,5.80
2024-01-21T12:42:22.407Z,6.20
2024-01-21T12:44:50.356Z,6.50
2024-01-21T12:47:18.667Z,5.70
2024-01-21T12:49:46.633Z,6.70
2024-01-21T12:52:14.625Z,7.50
2024-01-21T12:54:42.773Z,6.60
2024-01-21T12:57:10.682Z,5.20
2024-01-21T12:59:38.602Z,6.10
2024-01-21T13:02:06.669Z,5.90
2024-01-21T13:04:34.872Z,5.70
2024-01-21T13:07:03.090Z,5.80
2024-01-21T13:09:31.333Z,5.80
2024-01-21T13:11:59.419Z,5.80
2024-01-21T13:14:28.469Z,5.50
2024-01-21T13:16:56.957Z,6.30
2024-01-21T13:19:25.285Z,7.30
2024-01-21T13:21:53.444Z,6.80
2024-01-21T13:24:22.181Z,6.20
2024-01-21T13:26:53.860Z,6.90
2024-01-21T13:29:40.673Z,6.10
2024-01-21T13:32:08.832Z,6.60
2024-01-21T13:34:37.133Z,5.90
2024-01-21T13:37:11.754Z,10.70
2024-01-21T13:39:43.214Z,7.50
2024-01-21T13:42:11.410Z,7.30
2024-01-21T13:44:40.137Z,6.20
2024-01-21T13:47:08.169Z,7.10
2024-01-21T13:49:37.240Z,7.40
2024-01-21T13:52:05.799Z,8.20
2024-01-21T13:54:34.118Z,6.80
2024-01-21T13:57:02.282Z,7.60
2024-01-21T13:59:30.413Z,7.30
2024-01-21T14:02:04.962Z,6.90
2024-01-21T14:04:40.912Z,9.10
2024-01-21T14:07:08.935Z,7.50
2024-01-21T14:09:37.232Z,8.00
2024-01-21T14:12:05.828Z,8.60
2024-01-21T14:14:34.107Z,7.40
2024-01-21T14:17:03.480Z,9.40
2024-01-21T14:19:31.425Z,7.90
2024-01-21T14:22:00.676Z,7.30
2024-01-21T14:24:31.587Z,6.90
2024-01-21T14:26:59.605Z,8.40
2024-01-21T14:29:32.189Z,7.20
2024-01-21T14:32:00.183Z,8.60
2024-01-21T14:34:28.326Z,8.10
2024-01-21T14:36:56.514Z,8.90
2024-01-21T14:39:25.003Z,6.60
2024-01-21T14:41:53.150Z,7.60
2024-01-21T14:44:21.182Z,9.40
2024-01-21T14:46:49.120Z,9.20
2024-01-21T14:49:17.657Z,8.10
2024-01-21T14:51:45.787Z,8.20
2024-01-21T14:54:13.721Z,8.80
2024-01-21T14:56:41.828Z,8.00
2024-01-21T14:59:09.807Z,7.90
2024-01-21T15:01:37.716Z,7.80
2024-01-21T15:04:05.857Z,7.70
2024-01-21T15:06:33.893Z,8.30
2024-01-21T15:09:02.068Z,7.50
2024-01-21T15:11:30.277Z,7.60
2024-01-21T15:14:02.840Z,7.60
2024-01-21T15:16:30.875Z,7.10
2024-01-21T15:19:00.551Z,7.60
2024-01-21T15:21:28.793Z,8.40
2024-01-21T15:23:57.015Z,6.80
2024-01-21T15:26:26.120Z,8.10
2024-01-21T15:28:54.186Z,7.10
2024-01-21T15:31:23.886Z,7.70
2024-01-21T15:33:52.092Z,6.30
2024-01-21T15:36:20.879Z,6.60
2024-01-21T15:38:49.024Z,5.80
2024-01-21T15:41:17.153Z,6.00
2024-01-21T15:43:45.085Z,5.10
2024-01-21T15:46:13.230Z,6.30
2024-01-21T15:48:41.295Z,5.60
2024-01-21T15:51:10.380Z,5.60
2024-01-21T15:53:39.523Z,6.50
2024-01-21T15:56:08.236Z,5.80
2024-01-21T15:58:36.541Z,5.40
2024-01-21T16:01:04.732Z,5.40
2024-01-21T16:03:32.854Z,5.40
2024-01-21T16:06:00.901Z,5.70
2024-01-21T16:08:29.077Z,4.70
2024-01-21T16:10:57.155Z,5.50
2024-01-21T16:13:30.627Z,6.50
2024-01-21T16:16:06.141Z,5.00
2024-01-21T16:18:34.540Z,6.00
2024-01-21T16:21:02.619Z,5.70
2024-01-21T16:23:30.897Z,5.20
2024-01-21T16:25:58.783Z,6.30
2024-01-21T16:28:26.726Z,5.30
2024-01-21T16:30:55.342Z,5.40
2024-01-21T16:33:25.024Z,5.70
2024-01-21T16:35:53.195Z,5.10
2024-01-21T16:38:21.490Z,7.10
2024-01-21T16:40:51.724Z,6.10
2024-01-21T16:43:19.740Z,6.60
2024-01-21T16:45:48.038Z,6.10
2024-01-21T16:48:16.070Z,7.20
2024-01-21T16:50:46.756Z,6.50
2024-01-21T16:53:22.212Z,6.60
2024-01-21T16:55:50.271Z,7.00
2024-01-21T16:58:18.401Z,6.90
2024-01-21T17:00:52.293Z,6.00
2024-01-21T17:03:21.910Z,6.50
2024-01-21T17:05:50.133Z,6.40
2024-01-21T17:08:18.388Z,7.00
2024-01-21T17:11:06.694Z,6.70
2024-01-21T17:13:34.969Z,6.20
2024-01-21T17:16:03.129Z,6.30
2024-01-21T17:18:39.517Z,6.20
2024-01-21T17:21:07.977Z,6.60
2024-01-21T17:23:36.395Z,6.40
2024-01-21T17:26:04.763Z,6.20
2024-01-21T17:28:33.190Z,6.20
2024-01-21T17:31:02.081Z,6.20
2024-01-21T17:33:30.773Z,5.20
2024-01-21T17:35:59.290Z,5.20
2024-01-21T17:38:27.345Z,5.50
2024-01-21T17:40:55.662Z,6.00
2024-01-21T17:43:23.644Z,5.50
2024-01-21T17:45:51.524Z,5.30
2024-01-21T17:48:20.215Z,5.20
2024-01-21T17:50:48.290Z,4.40
2024-01-21T17:53:16.294Z,5.20
2024-01-21T17:58:12.672Z,4.50
2024-01-21T18:00:40.858Z,4.50
2024-01-21T18:03:09.117Z,4.50
2024-01-21T18:05:38.221Z,4.40
2024-01-21T18:08:06.300Z,3.80
2024-01-21T18:10:34.640Z,3.90
2024-01-21T18:13:02.509Z,4.40
2024-01-21T18:15:30.509Z,4.90
2024-01-21T18:17:58.792Z,4.40
2024-01-21T18:20:26.948Z,4.20
2024-01-21T18:22:55.420Z,4.50
2024-01-21T18:25:23.558Z,4.80
2024-01-21T18:27:52.789Z,4.00
2024-01-21T18:30:20.684Z,4.30
2024-01-21T18:32:49.042Z,4.40
2024-01-21T18:35:17.317Z,4.50
2024-01-21T18:37:45.283Z,4.40
2024-01-21T18:40:13.854Z,3.80
2024-01-21T18:42:41.815Z,3.70
2024-01-21T18:45:10.515Z,3.90
2024-01-21T18:47:39.247Z,4.30
2024-01-21T18:50:08.056Z,4.30
2024-01-21T18:52:36.243Z,4.20
2024-01-21T18:55:04.756Z,4.10
2024-01-21T18:57:32.946Z,4.40
2024-01-21T19:00:01.742Z,4.20
2024-01-21T19:02:30.182Z,4.50
2024-01-21T19:04:58.475Z,3.90
2024-01-21T19:07:32.656Z,3.80
2024-01-21T19:10:04.454Z,4.30
2024-01-21T19:12:32.554Z,4.40
2024-01-21T19:15:00.495Z,4.10
2024-01-21T19:17:28.615Z,4.30
2024-01-21T19:19:58.199Z,3.70
2024-01-21T19:22:26.113Z,4.80
2024-01-21T19:24:55.127Z,4.50
2024-01-21T19:27:23.396Z,4.50
2024-01-21T19:29:51.312Z,3.90
2024-01-21T19:32:19.671Z,3.80
2024-01-21T19:34:48.063Z,4.30
2024-01-21T19:37:16.010Z,4.20
2024-01-21T19:39:44.370Z,4.10
2024-01-21T19:42:13.571Z,4.40
2024-01-21T19:44:41.642Z,4.70
2024-01-21T19:47:10.269Z,5.60
2024-01-21T19:49:40.845Z,4.60
2024-01-21T19:52:08.954Z,5.20
2024-01-21T19:54:37.694Z,6.90
2024-01-21T19:57:06.639Z,7.00
2024-01-21T19:59:36.560Z,5.80
2024-01-21T20:02:05.260Z,6.20
2024-01-21T20:04:33.893Z,5.00
2024-01-21T20:07:02.259Z,5.90
2024-01-21T20:09:31.012Z,5.50
2024-01-21T20:11:59.505Z,5.30
2024-01-21T20:14:27.661Z,4.70
2024-01-21T20:16:56.248Z,4.90
2024-01-21T20:19:24.312Z,4.60
2024-01-21T20:21:52.284Z,5.50
2024-01-21T20:24:21.232Z,5.60
2024-01-21T20:26:49.415Z,4.70
2024-01-21T20:29:18.003Z,6.10
2024-01-21T20:31:47.716Z,5.30
2024-01-21T20:34:16.499Z,5.50
2024-01-21T20:36:44.872Z,5.90
2024-01-21T20:39:13.352Z,6.20
2024-01-21T20:41:41.928Z,6.30
2024-01-21T20:44:11.056Z,6.60
2024-01-21T20:46:39.649Z,5.20
2024-01-21T20:49:07.821Z,5.90
2024-01-21T20:51:39.549Z,5.80
2024-01-21T20:54:08.748Z,5.20
2024-01-21T20:56:37.316Z,6.30
2024-01-21T20:59:05.612Z,5.30
2024-01-21T21:01:35.763Z,6.00
2024-01-21T21:04:04.226Z,5.70
2024-01-21T21:06:32.813Z,6.70
2024-01-21T21:09:01.026Z,6.90
2024-01-21T21:11:29.397Z,6.60
2024-01-21T21:13:57.581Z,6.70
2024-01-21T21:16:26.552Z,6.90
2024-01-21T21:18:55.306Z,7.30
2024-01-21T21:21:24.212Z,7.50
2024-01-21T21:23:52.234Z,6.40
2024-01-21T21:26:20.201Z,6.60
2024-01-21T21:28:48.125Z,6.30
2024-01-21T21:31:16.467Z,5.50
2024-01-21T21:33:48.343Z,7.10
2024-01-21T21:36:16.658Z,5.50
2024-01-21T21:38:48.149Z,5.60
2024-01-21T21:41:16.520Z,5.10
2024-01-21T21:43:44.687Z,5.40
2024-01-21T21:46:12.819Z,4.20
2024-01-21T21:48:41.096Z,5.20
2024-01-21T21:51:11.845Z,4.90
2024-01-21T21:53:40.233Z,5.70
2024-01-21T21:56:08.517Z,5.70
2024-01-21T21:58:36.553Z,4.70
2024-01-21T22:01:04.881Z,5.80
2024-01-21T22:03:34.193Z,5.50
2024-01-21T22:06:05.090Z,5.50
2024-01-21T22:08:35.080Z,5.40
2024-01-21T22:11:04.687Z,5.00
2024-01-21T22:13:34.358Z,6.10
2024-01-21T22:16:03.254Z,5.20
2024-01-21T22:18:33.425Z,5.50
2024-01-21T22:21:03.435Z,5.70
2024-01-21T22:23:31.428Z,7.00
2024-01-21T22:25:59.502Z,6.90
2024-01-21T22:28:27.535Z,7.30
2024-01-21T22:30:59.316Z,6.70
2024-01-21T22:33:27.421Z,6.50
2024-01-21T22:35:55.495Z,5.60
2024-01-21T22:38:23.364Z,5.20
2024-01-21T22:40:54.609Z,5.70
2024-01-21T22:43:22.638Z,6.00
2024-01-21T22:45:50.520Z,6.10
2024-01-21T22:48:18.676Z,6.00
2024-01-21T22:50:47.225Z,6.00
2024-01-21T22:53:15.345Z,6.60
2024-01-21T22:55:43.265Z,6.40
2024-01-21T22:58:11.704Z,5.40
2024-01-21T23:00:39.710Z,5.40
2024-01-21T23:03:07.876Z,6.00
2024-01-21T23:05:36.108Z,6.80
2024-01-21T23:08:04.374Z,6.90
2024-01-21T23:10:32.206Z,5.30
2024-01-21T23:13:03.560Z,6.60
2024-01-21T23:15:31.504Z,6.50
2024-01-21T23:17:59.835Z,6.00
2024-01-21T23:20:27.807Z,6.10
2024-01-21T23:22:55.985Z,5.60
2024-01-21T23:25:24.226Z,6.20
2024-01-21T23:27:52.161Z,6.10
2024-01-21T23:30:20.100Z,6.30
2024-01-21T23:32:48.350Z,6.90
2024-01-21T23:35:16.943Z,6.70
2024-01-21T23:37:44.822Z,5.90
2024-01-21T23:40:13.144Z,6.00
2024-01-21T23:42:41.167Z,6.50
2024-01-21T23:45:11.352Z,6.50
2024-01-21T23:47:39.445Z,7.20
2024-01-21T23:50:09.014Z,6.40
2024-01-21T23:52:36.984Z,8.10
2024-01-21T23:55:05.323Z,6.00
2024-01-21T23:57:33.427Z,6.90
